首页
METAR-TAF:

METAR-TAF

机场 :

旧克罗, 育康省, 加拿大

纬度: 67-34N, 经度: 139-49W, 海拔: 251米

当前天气观测

该预报发布于48分钟前的20:00 UTC
风速14节,风向西,有时为22节阵风
温度 -11°C
湿度 51%
气压 1015 hPa
能見度: 56.3公里
少量云层高于2800英尺
散云层高于4200英尺
多云层高于7200英尺
多云层高于20000英尺

METAR: CYOC 072000Z 26014G22KT 35SM FEW028 SCT042 BKN072 BKN200 M11/M19 A2997 RMK SC1SC3AC3CI1 SC TR CF ASOCTD SLP175

时间: 13:48 (20:48 UTC)

预报

该预报发布于2小时和10分钟前的18:38 UTC
预报有效从07日的 19点(UTC)到 08日的 01点(UTC)
风速18节,风向西转西南,有时为28节阵风
能見度: 10公里
散云层高于2000英尺
多云层高于10000英尺

TAF: CYOC 071838Z 0719/0801 25018G28KT P6SM SCT020 BKN100 RMK NXT FCST WILL BE ISSUED AT 081445Z

超过4000个机场的气象观测和天气预报(METAR&TAF报告)。

可查询的气象台以黄色和红色小点在地图上表示。

将鼠标移到小点上方,可查看气象台名称。

然后点击查看天气观测和预报。

如需切换地图:点击带黑十字的绿色按钮放大地图;点击带横线的绿色按钮缩小地图;或者点击绿色箭头查看邻近地区的地图。


METAR-TAF: